createdAt,value
2022-09-22T00:02:26.541Z,100.00
2022-09-22T00:05:12.362Z,100.00
2022-09-22T00:07:57.652Z,100.00
2022-09-22T00:10:42.952Z,100.00
2022-09-22T00:13:28.663Z,100.00
2022-09-22T00:16:15.585Z,100.00
2022-09-22T00:19:01.186Z,100.00
2022-09-22T00:21:47.760Z,100.00
2022-09-22T00:24:34.523Z,100.00
2022-09-22T00:27:19.869Z,100.00
2022-09-22T00:30:06.919Z,100.00
2022-09-22T00:32:52.613Z,100.00
2022-09-22T00:35:38.371Z,100.00
2022-09-22T00:38:24.024Z,100.00
2022-09-22T00:41:16.534Z,100.00
2022-09-22T00:44:27.052Z,100.00
2022-09-22T00:47:18.606Z,100.00
2022-09-22T00:50:23.701Z,100.00
2022-09-22T00:53:14.024Z,100.00
2022-09-22T00:56:05.806Z,100.00
2022-09-22T00:58:56.601Z,100.00
2022-09-22T01:01:42.578Z,100.00
2022-09-22T01:04:29.022Z,100.00
2022-09-22T01:07:14.985Z,100.00
2022-09-22T01:10:00.508Z,100.00
2022-09-22T01:13:06.121Z,100.00
2022-09-22T01:16:20.871Z,100.00
2022-09-22T01:19:35.088Z,100.00
2022-09-22T01:22:37.274Z,100.00
2022-09-22T01:25:43.902Z,100.00
2022-09-22T01:28:54.186Z,100.00
2022-09-22T01:32:08.397Z,100.00
2022-09-22T01:35:16.541Z,100.00
2022-09-22T01:38:19.239Z,100.00
2022-09-22T01:41:15.180Z,100.00
2022-09-22T01:44:07.937Z,100.00
2022-09-22T01:47:00.034Z,100.00
2022-09-22T01:49:51.372Z,100.00
2022-09-22T01:52:41.128Z,100.00
2022-09-22T01:55:32.550Z,100.00
2022-09-22T01:58:24.697Z,100.00
2022-09-22T02:01:15.158Z,100.00
2022-09-22T02:04:15.635Z,100.00
2022-09-22T02:07:16.642Z,100.00
2022-09-22T02:10:06.971Z,100.00
2022-09-22T02:12:52.519Z,100.00
2022-09-22T02:15:56.276Z,100.00
2022-09-22T02:18:53.198Z,100.00
2022-09-22T02:21:39.635Z,100.00
2022-09-22T02:24:54.449Z,100.00
2022-09-22T02:27:41.468Z,100.00
2022-09-22T02:30:27.368Z,100.00
2022-09-22T02:33:14.179Z,100.00
2022-09-22T02:36:35.638Z,100.00
2022-09-22T02:39:39.509Z,100.00
2022-09-22T02:42:29.750Z,100.00
2022-09-22T02:45:22.369Z,100.00
2022-09-22T02:48:19.318Z,100.00
2022-09-22T02:51:05.976Z,100.00
2022-09-22T02:53:51.636Z,100.00
2022-09-22T02:56:37.276Z,100.00
2022-09-22T02:59:22.911Z,100.00
2022-09-22T03:02:08.272Z,100.00
2022-09-22T03:04:53.878Z,100.00
2022-09-22T03:07:39.601Z,100.00
2022-09-22T03:10:25.414Z,100.00
2022-09-22T03:13:17.906Z,100.00
2022-09-22T03:16:03.586Z,100.00
2022-09-22T03:18:49.028Z,100.00
2022-09-22T03:21:34.586Z,100.00
2022-09-22T03:24:20.038Z,100.00
2022-09-22T03:27:05.415Z,100.00
2022-09-22T03:29:50.636Z,100.00
2022-09-22T03:32:36.822Z,100.00
2022-09-22T03:35:22.721Z,100.00
2022-09-22T03:38:08.359Z,100.00
2022-09-22T03:40:54.191Z,100.00
2022-09-22T03:43:39.781Z,100.00
2022-09-22T03:46:25.990Z,100.00
2022-09-22T03:49:11.515Z,100.00
2022-09-22T03:51:57.547Z,100.00
2022-09-22T03:54:43.061Z,100.00
2022-09-22T03:57:30.101Z,100.00
2022-09-22T04:00:16.647Z,100.00
2022-09-22T04:03:02.189Z,100.00
2022-09-22T04:05:51.415Z,100.00
2022-09-22T04:08:37.184Z,100.00
2022-09-22T04:11:24.215Z,100.00
2022-09-22T04:14:09.660Z,100.00
2022-09-22T04:16:55.480Z,100.00
2022-09-22T04:19:41.288Z,100.00
2022-09-22T04:22:26.595Z,100.00
2022-09-22T04:25:12.481Z,100.00
2022-09-22T04:28:00.262Z,100.00
2022-09-22T04:30:47.546Z,100.00
2022-09-22T04:33:33.007Z,100.00
2022-09-22T04:36:18.709Z,100.00
2022-09-22T04:39:04.130Z,100.00
2022-09-22T04:41:49.657Z,100.00
2022-09-22T04:44:35.626Z,100.00
2022-09-22T04:47:20.945Z,100.00
2022-09-22T04:50:06.978Z,100.00
2022-09-22T04:52:55.695Z,100.00
2022-09-22T04:55:41.300Z,100.00
2022-09-22T04:58:26.513Z,100.00
2022-09-22T05:01:11.775Z,100.00
2022-09-22T05:03:57.690Z,100.00
2022-09-22T05:06:43.721Z,100.00
2022-09-22T05:09:29.909Z,100.00
2022-09-22T05:12:15.333Z,100.00
2022-09-22T05:15:00.786Z,100.00
2022-09-22T05:17:55.026Z,100.00
2022-09-22T05:20:40.493Z,100.00
2022-09-22T05:23:26.063Z,100.00
2022-09-22T05:26:11.350Z,100.00
2022-09-22T05:28:57.573Z,100.00
2022-09-22T05:31:42.974Z,100.00
2022-09-22T05:34:28.725Z,100.00
2022-09-22T05:37:14.501Z,100.00
2022-09-22T05:39:59.829Z,100.00
2022-09-22T05:42:47.853Z,100.00
2022-09-22T05:45:33.438Z,100.00
2022-09-22T05:48:19.092Z,100.00
2022-09-22T05:51:04.724Z,100.00
2022-09-22T05:53:50.044Z,100.00
2022-09-22T05:56:35.599Z,100.00
2022-09-22T05:59:20.877Z,100.00
2022-09-22T06:02:23.839Z,100.00
2022-09-22T06:05:11.290Z,100.00
2022-09-22T06:07:59.538Z,100.00
2022-09-22T06:10:51.044Z,100.00
2022-09-22T06:13:36.683Z,100.00
2022-09-22T06:16:22.027Z,100.00
2022-09-22T06:19:07.636Z,100.00
2022-09-22T06:21:53.077Z,100.00
2022-09-22T06:24:38.294Z,100.00
2022-09-22T06:27:23.605Z,100.00
2022-09-22T06:30:11.322Z,100.00
2022-09-22T06:32:56.941Z,100.00
2022-09-22T06:35:42.993Z,100.00
2022-09-22T06:38:31.842Z,100.00
2022-09-22T06:41:17.185Z,100.00
2022-09-22T06:44:05.234Z,100.00
2022-09-22T06:46:50.602Z,100.00
2022-09-22T06:49:35.956Z,100.00
2022-09-22T06:52:21.517Z,100.00
2022-09-22T06:55:07.524Z,100.00
2022-09-22T06:57:53.184Z,100.00
2022-09-22T07:00:41.623Z,100.00
2022-09-22T07:03:27.469Z,100.00
2022-09-22T07:06:20.436Z,100.00
2022-09-22T07:09:06.623Z,100.00
2022-09-22T07:11:52.179Z,100.00
2022-09-22T07:14:37.716Z,100.00
2022-09-22T07:17:23.611Z,100.00
2022-09-22T07:20:09.531Z,100.00
2022-09-22T07:23:00.267Z,100.00
2022-09-22T07:25:56.351Z,100.00
2022-09-22T07:28:42.437Z,99.27
2022-09-22T07:31:30.248Z,94.69
2022-09-22T07:34:16.378Z,93.89
2022-09-22T07:37:02.856Z,88.12
2022-09-22T07:39:48.393Z,84.01
2022-09-22T07:42:34.195Z,78.70
2022-09-22T07:45:19.929Z,76.58
2022-09-22T07:48:23.671Z,76.44
2022-09-22T07:51:20.542Z,74.29
2022-09-22T07:54:08.676Z,71.30
2022-09-22T07:56:58.530Z,70.92
2022-09-22T07:59:45.094Z,65.97
2022-09-22T08:02:31.038Z,62.95
2022-09-22T08:05:16.490Z,61.13
2022-09-22T08:08:02.476Z,60.51
2022-09-22T08:10:48.969Z,60.46
2022-09-22T08:13:35.051Z,59.11
2022-09-22T08:16:24.418Z,57.57
2022-09-22T08:19:14.748Z,59.73
2022-09-22T08:22:00.182Z,56.48
2022-09-22T08:24:45.727Z,56.17
2022-09-22T08:27:31.182Z,53.23
2022-09-22T08:30:19.597Z,52.37
2022-09-22T08:33:05.137Z,50.39
2022-09-22T08:35:57.720Z,51.35
2022-09-22T08:38:47.156Z,52.13
2022-09-22T08:42:01.093Z,48.49
2022-09-22T08:45:09.212Z,49.63
2022-09-22T08:48:20.201Z,49.17
2022-09-22T08:51:41.629Z,44.64
2022-09-22T08:54:31.709Z,45.37
2022-09-22T08:57:31.609Z,45.73
2022-09-22T09:00:19.603Z,43.48
2022-09-22T09:03:16.775Z,42.42
2022-09-22T09:06:12.132Z,43.84
2022-09-22T09:09:05.298Z,43.93
2022-09-22T09:12:28.345Z,42.59
2022-09-22T09:15:19.866Z,41.87
2022-09-22T09:18:13.695Z,41.83
2022-09-22T09:21:03.433Z,42.74
2022-09-22T09:27:09.442Z,42.78
2022-09-22T09:30:10.234Z,43.62
2022-09-22T09:33:00.531Z,43.60
2022-09-22T09:35:51.904Z,40.55
2022-09-22T09:38:48.397Z,39.41
2022-09-22T09:41:36.319Z,40.51
2022-09-22T09:44:29.189Z,37.72
2022-09-22T09:47:22.586Z,37.75
2022-09-22T09:50:11.078Z,37.64
2022-09-22T09:52:57.734Z,37.01
2022-09-22T09:55:43.270Z,36.87
2022-09-22T09:58:47.418Z,38.23
2022-09-22T10:01:33.034Z,36.73
2022-09-22T10:04:30.912Z,37.14
2022-09-22T10:07:23.490Z,35.95
2022-09-22T10:10:37.811Z,37.00
2022-09-22T10:13:30.944Z,36.95
2022-09-22T10:16:24.815Z,36.97
2022-09-22T10:19:21.903Z,38.62
2022-09-22T10:22:27.743Z,35.95
2022-09-22T10:25:22.979Z,34.63
2022-09-22T10:28:17.040Z,37.43
2022-09-22T10:31:03.306Z,35.51
2022-09-22T10:33:59.635Z,38.29
2022-09-22T10:36:47.178Z,38.33
2022-09-22T10:39:43.082Z,37.14
2022-09-22T10:42:45.464Z,37.48
2022-09-22T10:45:53.065Z,34.01
2022-09-22T10:48:48.511Z,36.59
2022-09-22T10:51:59.817Z,40.22
2022-09-22T10:54:48.948Z,34.30
2022-09-22T10:57:52.855Z,32.79
2022-09-22T11:00:40.380Z,34.04
2022-09-22T11:03:50.976Z,34.93
2022-09-22T11:07:33.402Z,34.17
2022-09-22T11:11:01.053Z,36.17
2022-09-22T11:14:07.065Z,35.14
2022-09-22T11:17:12.737Z,34.11
2022-09-22T11:20:36.130Z,34.78
2022-09-22T11:23:44.986Z,34.28
2022-09-22T11:26:39.605Z,33.46
2022-09-22T11:29:51.225Z,34.76
2022-09-22T11:32:45.678Z,29.97
2022-09-22T11:36:09.744Z,31.21
2022-09-22T11:39:19.160Z,33.98
2022-09-22T11:42:35.957Z,37.67
2022-09-22T11:45:43.602Z,34.40
2022-09-22T11:48:45.151Z,32.73
2022-09-22T11:52:05.207Z,32.63
2022-09-22T11:55:15.995Z,31.83
2022-09-22T11:58:09.200Z,31.75
2022-09-22T12:01:00.530Z,33.90
2022-09-22T12:03:55.543Z,33.42
2022-09-22T12:06:44.779Z,32.65
2022-09-22T12:09:49.656Z,31.03
2022-09-22T12:12:36.323Z,34.85
2022-09-22T12:16:02.204Z,40.39
2022-09-22T12:18:55.816Z,33.80
2022-09-22T12:22:15.439Z,29.78
2022-09-22T12:25:01.410Z,29.66
2022-09-22T12:27:46.848Z,29.95
2022-09-22T12:30:32.977Z,31.37
2022-09-22T12:33:18.232Z,34.83
2022-09-22T12:36:05.484Z,32.64
2022-09-22T12:38:51.769Z,31.84
2022-09-22T12:42:00.151Z,31.10
2022-09-22T12:44:57.305Z,34.57
2022-09-22T12:47:49.683Z,39.39
2022-09-22T12:50:39.885Z,38.54
2022-09-22T12:53:28.619Z,40.25
2022-09-22T12:56:53.849Z,35.62
2022-09-22T12:59:39.345Z,31.90
2022-09-22T13:02:29.346Z,30.16
2022-09-22T13:05:26.942Z,30.63
2022-09-22T13:08:32.589Z,32.21
2022-09-22T13:11:18.401Z,32.73
2022-09-22T13:14:42.639Z,32.44
2022-09-22T13:17:46.681Z,31.21
2022-09-22T13:20:34.505Z,29.45
2022-09-22T13:23:19.984Z,29.34
2022-09-22T13:26:07.937Z,30.62
2022-09-22T13:29:07.142Z,35.93
2022-09-22T13:31:55.413Z,33.29
2022-09-22T13:34:41.037Z,31.60
2022-09-22T13:37:26.759Z,32.97
2022-09-22T13:40:12.517Z,35.31
2022-09-22T13:43:05.953Z,36.09
2022-09-22T13:45:52.333Z,38.77
2022-09-22T13:48:37.904Z,40.88
2022-09-22T13:51:25.802Z,43.48
2022-09-22T13:54:18.680Z,45.02
2022-09-22T13:57:15.500Z,47.46
2022-09-22T14:00:01.659Z,48.98
2022-09-22T14:02:47.434Z,48.52
2022-09-22T14:05:35.012Z,47.17
2022-09-22T14:08:30.554Z,47.45
2022-09-22T14:11:24.562Z,48.05
2022-09-22T14:14:24.352Z,49.32
2022-09-22T14:17:19.454Z,48.89
2022-09-22T14:20:08.892Z,49.57
2022-09-22T14:22:54.414Z,50.90
2022-09-22T14:25:40.120Z,52.25
2022-09-22T14:28:29.640Z,52.21
2022-09-22T14:31:21.810Z,53.02
2022-09-22T14:34:09.732Z,53.66
2022-09-22T14:36:56.134Z,51.56
2022-09-22T14:39:42.013Z,51.54
2022-09-22T14:42:30.077Z,51.77
2022-09-22T14:45:21.748Z,53.28
2022-09-22T14:48:16.789Z,52.73
2022-09-22T14:51:08.311Z,53.03
2022-09-22T14:53:57.625Z,54.29
2022-09-22T14:56:44.179Z,55.94
2022-09-22T14:59:54.796Z,55.06
2022-09-22T15:02:42.926Z,56.05
2022-09-22T15:05:33.695Z,56.17
2022-09-22T15:08:27.675Z,58.59
2022-09-22T15:11:13.719Z,57.59
2022-09-22T15:13:59.579Z,57.56
2022-09-22T15:16:44.824Z,56.36
2022-09-22T15:19:36.991Z,56.96
2022-09-22T15:22:24.030Z,56.00
2022-09-22T15:25:15.037Z,56.78
2022-09-22T15:28:00.794Z,57.23
2022-09-22T15:30:48.547Z,56.51
2022-09-22T15:33:33.712Z,57.15
2022-09-22T15:36:21.303Z,54.63
2022-09-22T15:39:16.087Z,55.15
2022-09-22T15:42:01.616Z,55.66
2022-09-22T15:44:48.011Z,55.48
2022-09-22T15:47:33.786Z,56.06
2022-09-22T15:50:23.800Z,56.32
2022-09-22T15:53:09.444Z,55.92
2022-09-22T15:55:54.835Z,56.01
2022-09-22T15:58:43.420Z,56.71
2022-09-22T16:01:29.611Z,57.32
2022-09-22T16:04:15.120Z,59.98
2022-09-22T16:07:08.319Z,61.25
2022-09-22T16:09:54.877Z,61.44
2022-09-22T16:12:41.626Z,62.73
2022-09-22T16:15:27.227Z,63.11
2022-09-22T16:18:12.896Z,63.73
2022-09-22T16:21:22.892Z,63.50
2022-09-22T16:24:10.703Z,64.77
2022-09-22T16:26:56.127Z,68.46
2022-09-22T16:29:43.367Z,68.21
2022-09-22T16:32:28.827Z,66.99
2022-09-22T16:35:14.340Z,67.80
2022-09-22T16:37:59.936Z,67.89
2022-09-22T16:40:59.598Z,68.28
2022-09-22T16:43:45.154Z,68.50
2022-09-22T16:46:33.423Z,68.05
2022-09-22T16:49:20.315Z,68.55
2022-09-22T16:52:05.985Z,70.47
2022-09-22T16:54:51.557Z,69.54
2022-09-22T16:57:37.101Z,72.23
2022-09-22T17:00:22.686Z,70.64
2022-09-22T17:03:08.309Z,74.15
2022-09-22T17:06:08.696Z,73.96
2022-09-22T17:08:58.540Z,74.50
2022-09-22T17:11:45.636Z,73.87
2022-09-22T17:14:32.561Z,73.18
2022-09-22T17:17:18.485Z,74.37
2022-09-22T17:20:04.192Z,76.55
2022-09-22T17:22:49.562Z,73.64
2022-09-22T17:25:34.983Z,73.86
2022-09-22T17:28:20.154Z,75.52
2022-09-22T17:31:07.484Z,75.63
2022-09-22T17:33:53.417Z,76.81
2022-09-22T17:36:39.388Z,77.62
2022-09-22T17:39:26.985Z,77.37
2022-09-22T17:42:14.536Z,81.96
2022-09-22T17:44:59.850Z,78.83
2022-09-22T17:48:03.806Z,78.21
2022-09-22T17:51:09.083Z,81.00
2022-09-22T17:54:12.697Z,84.85
2022-09-22T17:56:58.278Z,85.79
2022-09-22T17:59:43.870Z,86.70
2022-09-22T18:02:36.609Z,86.10
2022-09-22T18:05:27.709Z,87.94
2022-09-22T18:08:13.077Z,89.58
2022-09-22T18:11:01.498Z,88.89
2022-09-22T18:13:47.631Z,87.40
2022-09-22T18:16:34.845Z,86.94
2022-09-22T18:19:20.303Z,86.30
2022-09-22T18:22:07.796Z,88.57
2022-09-22T18:24:55.404Z,89.02
2022-09-22T18:27:41.080Z,89.48
2022-09-22T18:30:28.150Z,88.98
2022-09-22T18:33:14.172Z,91.13
2022-09-22T18:35:59.858Z,90.71
2022-09-22T18:38:45.419Z,92.12
2022-09-22T18:41:35.275Z,93.41
2022-09-22T18:44:21.952Z,93.32
2022-09-22T18:47:11.496Z,93.18
2022-09-22T18:49:58.692Z,94.81
2022-09-22T18:52:47.210Z,94.15
2022-09-22T18:55:33.016Z,94.21
2022-09-22T18:58:18.272Z,95.78
2022-09-22T19:01:07.117Z,95.68
2022-09-22T19:03:52.862Z,95.60
2022-09-22T19:06:57.055Z,92.97
2022-09-22T19:09:44.407Z,90.75
2022-09-22T19:12:39.337Z,91.19
2022-09-22T19:15:25.567Z,92.14
2022-09-22T19:18:11.467Z,92.69
2022-09-22T19:20:58.248Z,94.33
2022-09-22T19:23:43.824Z,95.76
2022-09-22T19:26:29.305Z,96.11
2022-09-22T19:29:14.608Z,97.11
2022-09-22T19:32:01.731Z,97.57
2022-09-22T19:34:47.122Z,98.46
2022-09-22T19:37:32.556Z,98.70
2022-09-22T19:40:19.232Z,99.30
2022-09-22T19:43:04.852Z,97.29
2022-09-22T19:45:51.890Z,97.45
2022-09-22T19:48:37.636Z,97.67
2022-09-22T19:51:23.580Z,97.81
2022-09-22T19:54:09.377Z,97.65
2022-09-22T19:56:55.104Z,99.84
2022-09-22T19:59:40.742Z,100.00
2022-09-22T20:02:26.520Z,100.00
2022-09-22T20:05:20.778Z,100.00
2022-09-22T20:08:15.416Z,100.00
2022-09-22T20:11:22.654Z,100.00
2022-09-22T20:14:20.055Z,100.00
2022-09-22T20:17:07.995Z,100.00
2022-09-22T20:19:55.161Z,100.00
2022-09-22T20:22:41.911Z,100.00
2022-09-22T20:25:32.324Z,100.00
2022-09-22T20:28:18.265Z,100.00
2022-09-22T20:31:03.830Z,100.00
2022-09-22T20:33:49.173Z,100.00
2022-09-22T20:36:37.120Z,100.00
2022-09-22T20:39:22.805Z,100.00
2022-09-22T20:42:08.335Z,100.00
2022-09-22T20:44:54.959Z,100.00
2022-09-22T20:47:41.052Z,100.00
2022-09-22T20:50:26.424Z,100.00
2022-09-22T20:53:12.736Z,100.00
2022-09-22T20:56:01.132Z,100.00
2022-09-22T20:58:46.708Z,100.00
2022-09-22T21:01:32.240Z,100.00
2022-09-22T21:04:17.665Z,100.00
2022-09-22T21:07:03.261Z,100.00
2022-09-22T21:10:07.200Z,97.91
2022-09-22T21:12:55.130Z,98.44
2022-09-22T21:15:40.740Z,98.97
2022-09-22T21:18:27.149Z,100.00
2022-09-22T21:21:15.309Z,98.89
2022-09-22T21:24:03.463Z,98.10
2022-09-22T21:26:49.612Z,98.45
2022-09-22T21:29:35.346Z,97.41
2022-09-22T21:32:20.927Z,94.97
2022-09-22T21:35:06.594Z,93.00
2022-09-22T21:37:55.077Z,91.98
2022-09-22T21:40:40.551Z,96.44
2022-09-22T21:43:26.788Z,92.81
2022-09-22T21:46:14.741Z,91.27
2022-09-22T21:49:02.643Z,90.45
2022-09-22T21:51:48.279Z,90.20
2022-09-22T21:54:33.860Z,90.81
2022-09-22T21:57:19.267Z,90.61
2022-09-22T22:00:07.193Z,91.92
2022-09-22T22:03:11.140Z,91.99
2022-09-22T22:06:01.833Z,90.70
2022-09-22T22:09:00.752Z,89.14
2022-09-22T22:11:49.383Z,88.45
2022-09-22T22:14:34.762Z,88.71
2022-09-22T22:17:20.116Z,89.44
2022-09-22T22:20:05.923Z,90.20
2022-09-22T22:22:51.148Z,90.94
2022-09-22T22:25:38.140Z,90.75
2022-09-22T22:28:23.458Z,91.37
2022-09-22T22:31:11.608Z,93.01
2022-09-22T22:33:57.333Z,93.05
2022-09-22T22:36:42.856Z,94.51
2022-09-22T22:39:29.841Z,95.32
2022-09-22T22:42:15.151Z,97.55
2022-09-22T22:45:00.759Z,97.25
2022-09-22T22:47:45.961Z,98.88
2022-09-22T22:50:31.521Z,98.87
2022-09-22T22:53:17.020Z,96.91
2022-09-22T22:56:05.865Z,94.46
2022-09-22T22:58:51.913Z,93.71
2022-09-22T23:01:37.831Z,93.82
2022-09-22T23:04:23.688Z,95.62
2022-09-22T23:07:08.846Z,95.56
2022-09-22T23:10:06.158Z,94.50
2022-09-22T23:12:52.659Z,95.45
2022-09-22T23:15:38.022Z,93.84
2022-09-22T23:18:23.582Z,94.34
2022-09-22T23:21:12.031Z,91.61
2022-09-22T23:23:57.719Z,95.12
2022-09-22T23:26:43.881Z,96.80
2022-09-22T23:29:29.419Z,94.87
2022-09-22T23:32:14.987Z,95.50
2022-09-22T23:35:00.374Z,94.31
2022-09-22T23:37:45.978Z,94.50
2022-09-22T23:40:31.529Z,95.37
2022-09-22T23:43:17.120Z,96.85
2022-09-22T23:46:04.742Z,99.34
2022-09-22T23:48:50.066Z,99.55
2022-09-22T23:51:35.838Z,99.21
2022-09-22T23:54:21.390Z,98.98
2022-09-22T23:57:07.035Z,96.24
2022-09-22T23:59:52.689Z,94.13
